createdAt,value
2023-04-11T00:06:40.151Z,51.60
2023-04-11T00:16:50.042Z,51.30
2023-04-11T00:26:57.043Z,46.90
2023-04-11T00:37:04.182Z,32.80
2023-04-11T00:47:11.895Z,34.80
2023-04-11T00:57:18.835Z,34.90
2023-04-11T01:07:26.512Z,34.70
2023-04-11T01:17:34.279Z,44.50
2023-04-11T01:37:49.463Z,36.60
2023-04-11T01:47:56.968Z,31.00
2023-04-11T01:58:04.112Z,29.90
2023-04-11T02:08:11.368Z,32.50
2023-04-11T02:18:18.338Z,35.50
2023-04-11T02:28:25.356Z,32.00
2023-04-11T02:38:32.681Z,33.90
2023-04-11T02:48:39.805Z,36.10
2023-04-11T02:58:47.130Z,35.50
2023-04-11T03:08:54.662Z,31.60
2023-04-11T03:19:02.082Z,32.60
2023-04-11T03:29:09.407Z,32.70
2023-04-11T03:39:16.858Z,31.60
2023-04-11T03:49:23.852Z,32.20
2023-04-11T03:59:30.836Z,29.20
2023-04-11T04:09:38.431Z,28.60
2023-04-11T04:19:45.566Z,31.40
2023-04-11T04:30:03.603Z,27.30
2023-04-11T04:40:13.389Z,27.40
2023-04-11T04:50:19.309Z,22.10
2023-04-11T05:00:25.292Z,22.10
2023-04-11T05:10:32.227Z,19.30
2023-04-11T05:20:39.846Z,21.20
2023-04-11T05:40:53.568Z,28.10
2023-04-11T05:51:01.374Z,31.80
2023-04-11T06:01:07.684Z,34.00
2023-04-11T06:11:15.091Z,35.60
2023-04-11T06:21:22.078Z,32.80
2023-04-11T06:31:29.214Z,33.10
2023-04-11T06:41:37.180Z,29.90
2023-04-11T06:51:44.252Z,32.20
2023-04-11T07:01:51.993Z,31.30
2023-04-11T07:11:59.214Z,30.10
2023-04-11T07:22:06.945Z,25.70
2023-04-11T07:32:13.951Z,22.60
2023-04-11T07:42:20.929Z,20.40
2023-04-11T07:52:28.044Z,17.00
2023-04-11T08:02:35.817Z,13.60
2023-04-11T08:12:43.061Z,14.20
2023-04-11T08:22:50.499Z,12.00
2023-04-11T08:32:57.981Z,12.40
2023-04-11T08:43:10.299Z,11.20
2023-04-11T08:53:21.550Z,8.00
2023-04-11T09:03:28.882Z,7.20
2023-04-11T09:13:36.830Z,7.90
2023-04-11T09:23:44.538Z,7.20
2023-04-11T09:33:53.824Z,7.00
2023-04-11T09:44:02.111Z,6.60
2023-04-11T09:54:11.742Z,11.60
2023-04-11T10:04:20.589Z,11.10
2023-04-11T10:14:44.065Z,8.00
2023-04-11T10:25:22.178Z,6.80
2023-04-11T10:35:29.706Z,6.30
2023-04-11T10:45:40.221Z,6.80
2023-04-11T10:55:48.211Z,7.20
2023-04-11T11:05:58.397Z,8.00
2023-04-11T11:16:05.701Z,8.40
2023-04-11T11:26:12.813Z,8.00
2023-04-11T11:36:20.171Z,8.10
2023-04-11T11:46:26.371Z,7.40
2023-04-11T12:06:39.103Z,6.20
2023-04-11T12:16:45.387Z,6.10
2023-04-11T12:27:05.667Z,5.90
2023-04-11T12:37:14.341Z,7.80
2023-04-11T12:47:21.855Z,7.80
2023-04-11T12:57:28.486Z,10.50
2023-04-11T13:07:33.863Z,8.60
2023-04-11T13:17:41.427Z,8.10
2023-04-11T13:27:47.707Z,9.10
2023-04-11T13:37:54.850Z,8.90
2023-04-11T13:48:02.131Z,8.20
2023-04-11T13:58:09.640Z,8.30
2023-04-11T14:08:17.045Z,9.90
2023-04-11T14:18:24.240Z,9.30
2023-04-11T14:28:32.361Z,11.40
2023-04-11T14:38:39.934Z,12.40
2023-04-11T14:48:47.362Z,13.10
2023-04-11T14:58:54.590Z,12.60
2023-04-11T15:09:03.298Z,14.40
2023-04-11T15:19:09.627Z,15.10
2023-04-11T15:29:15.948Z,15.40
2023-04-11T15:39:23.267Z,16.50
2023-04-11T15:49:30.387Z,15.70
2023-04-11T15:59:38.174Z,14.30
2023-04-11T16:09:44.472Z,15.20
2023-04-11T16:19:54.158Z,14.00
2023-04-11T16:30:00.670Z,10.80
2023-04-11T16:40:11.477Z,9.80
2023-04-11T16:50:19.316Z,22.90
2023-04-11T17:00:24.339Z,9.50
2023-04-11T17:10:31.433Z,11.90
2023-04-11T17:20:38.817Z,4.00
2023-04-11T17:30:47.105Z,4.20
2023-04-11T17:41:00.127Z,4.10
2023-04-11T17:51:11.093Z,3.10
2023-04-11T18:01:18.208Z,5.60
2023-04-11T18:11:25.909Z,5.90
2023-04-11T18:21:32.956Z,4.50
2023-04-11T18:31:40.103Z,5.20
2023-04-11T18:41:48.484Z,5.50
2023-04-11T18:51:56.208Z,6.20
2023-04-11T19:02:03.635Z,6.60
2023-04-11T19:12:16.195Z,5.50
2023-04-11T19:22:23.212Z,5.00
2023-04-11T19:32:30.597Z,5.40
2023-04-11T19:42:39.985Z,6.00
2023-04-11T19:52:47.671Z,7.80
2023-04-11T20:02:54.924Z,11.30
2023-04-11T20:13:02.298Z,10.60
2023-04-11T20:23:08.360Z,9.00
2023-04-11T20:33:15.426Z,7.60
2023-04-11T20:43:25.321Z,7.70
2023-04-11T20:53:33.445Z,7.50
2023-04-11T21:03:42.675Z,8.60
2023-04-11T21:13:51.434Z,9.30
2023-04-11T21:23:58.883Z,8.40
2023-04-11T21:34:06.369Z,10.60
2023-04-11T21:44:13.350Z,11.80
2023-04-11T21:54:20.879Z,11.10
2023-04-11T22:04:29.275Z,10.50
2023-04-11T22:14:38.484Z,10.80
2023-04-11T22:24:47.216Z,12.40
2023-04-11T22:34:54.186Z,11.60
2023-04-11T22:45:01.649Z,12.50
2023-04-11T22:55:10.388Z,10.90
2023-04-11T23:05:16.995Z,11.50
2023-04-11T23:15:24.029Z,9.40
2023-04-11T23:25:30.996Z,8.50
2023-04-11T23:35:38.889Z,6.10
2023-04-11T23:45:46.328Z,5.30
2023-04-11T23:55:53.914Z,4.00
